Terminal Aerodrome Forecast
Issued by NWS

Current Version | Previous Version | Graphics & Text | Print | Product List | Glossary On
Versions: 1 2 3 4 5 6 7 8 9 10 11 12 13 14 15 16 17 18 19 20 21
000
FTUS41 KPBZ 202322
TAFMGW
TAF
KMGW 202322Z 2100/2124 VRB05KT P6SM BKN200
     FM210400 VRB05KT P6SM OVC100
     FM210900 VRB05KT 6SM -RA OVC025
     FM211200 VRB05KT 4SM -RA OVC015
     FM211800 VRB05KT P6SM BKN025=

USA.gov is the U.S. government's official web portal to all federal, state and local government web resources and services.